sensor_id;sensor_type;location;lat;lon;timestamp;pressure;altitude;pressure_sealevel;temperature;humidity
77323;BME280;66384;51.052;9.850;2023-04-07T00:00:09;98609.69;;;4.61;58.69
77323;BME280;66384;51.052;9.850;2023-04-07T00:02:39;98607.64;;;4.61;58.53
77323;BME280;66384;51.052;9.850;2023-04-07T00:05:09;98606.39;;;4.60;58.64
77323;BME280;66384;51.052;9.850;2023-04-07T00:07:38;98611.16;;;4.56;58.72
77323;BME280;66384;51.052;9.850;2023-04-07T00:10:09;98610.55;;;4.50;58.66
77323;BME280;66384;51.052;9.850;2023-04-07T00:12:39;98612.15;;;4.48;59.00
77323;BME280;66384;51.052;9.850;2023-04-07T00:15:09;98608.80;;;4.46;59.16
77323;BME280;66384;51.052;9.850;2023-04-07T00:17:38;98606.36;;;4.44;58.88
77323;BME280;66384;51.052;9.850;2023-04-07T00:20:09;98601.44;;;4.41;59.10
77323;BME280;66384;51.052;9.850;2023-04-07T00:22:38;98601.19;;;4.32;59.25
77323;BME280;66384;51.052;9.850;2023-04-07T00:25:08;98603.41;;;4.23;59.66
77323;BME280;66384;51.052;9.850;2023-04-07T00:27:38;98599.84;;;4.19;59.69
77323;BME280;66384;51.052;9.850;2023-04-07T00:30:08;98604.15;;;4.21;59.83
77323;BME280;66384;51.052;9.850;2023-04-07T00:32:38;98602.55;;;4.19;60.00
77323;BME280;66384;51.052;9.850;2023-04-07T00:35:08;98599.45;;;4.18;59.88
77323;BME280;66384;51.052;9.850;2023-04-07T00:37:38;98597.99;;;4.17;60.05
77323;BME280;66384;51.052;9.850;2023-04-07T00:40:09;98595.28;;;4.13;60.11
77323;BME280;66384;51.052;9.850;2023-04-07T00:42:38;98589.79;;;4.08;60.44
77323;BME280;66384;51.052;9.850;2023-04-07T00:45:09;98588.34;;;4.03;60.38
77323;BME280;66384;51.052;9.850;2023-04-07T00:47:39;98587.14;;;4.03;60.38
77323;BME280;66384;51.052;9.850;2023-04-07T00:50:10;98587.27;;;4.02;60.58
77323;BME280;66384;51.052;9.850;2023-04-07T00:52:40;98590.34;;;3.99;60.36
77323;BME280;66384;51.052;9.850;2023-04-07T00:55:10;98582.30;;;3.98;60.47
77323;BME280;66384;51.052;9.850;2023-04-07T00:57:39;98584.83;;;3.98;60.60
77323;BME280;66384;51.052;9.850;2023-04-07T01:00:10;98583.67;;;3.95;60.63
77323;BME280;66384;51.052;9.850;2023-04-07T01:02:42;98585.41;;;3.89;60.61
77323;BME280;66384;51.052;9.850;2023-04-07T01:05:17;98584.83;;;3.84;60.72
77323;BME280;66384;51.052;9.850;2023-04-07T01:07:54;98584.48;;;3.81;60.85
77323;BME280;66384;51.052;9.850;2023-04-07T01:10:30;98579.41;;;3.81;60.83
77323;BME280;66384;51.052;9.850;2023-04-07T01:13:07;98578.31;;;3.83;60.96
77323;BME280;66384;51.052;9.850;2023-04-07T01:15:38;98576.66;;;3.84;60.86
77323;BME280;66384;51.052;9.850;2023-04-07T01:18:11;98575.20;;;3.85;60.86
77323;BME280;66384;51.052;9.850;2023-04-07T01:20:44;98571.55;;;3.84;60.64
77323;BME280;66384;51.052;9.850;2023-04-07T01:23:20;98565.92;;;3.84;61.04
77323;BME280;66384;51.052;9.850;2023-04-07T01:26:03;98565.13;;;3.85;61.02
77323;BME280;66384;51.052;9.850;2023-04-07T01:31:43;98571.52;;;3.87;61.30
77323;BME280;66384;51.052;9.850;2023-04-07T01:34:14;98570.88;;;3.87;61.35
77323;BME280;66384;51.052;9.850;2023-04-07T01:36:45;98570.70;;;3.87;61.10
77323;BME280;66384;51.052;9.850;2023-04-07T01:39:18;98566.93;;;3.87;61.41
77323;BME280;66384;51.052;9.850;2023-04-07T01:41:48;98564.63;;;3.89;61.41
77323;BME280;66384;51.052;9.850;2023-04-07T01:44:18;98567.59;;;3.90;61.01
77323;BME280;66384;51.052;9.850;2023-04-07T01:46:48;98565.28;;;3.91;61.19
77323;BME280;66384;51.052;9.850;2023-04-07T01:49:19;98569.45;;;3.93;61.26
77323;BME280;66384;51.052;9.850;2023-04-07T01:51:49;98571.70;;;3.94;61.11
77323;BME280;66384;51.052;9.850;2023-04-07T01:54:19;98570.34;;;3.94;61.20
77323;BME280;66384;51.052;9.850;2023-04-07T01:56:49;98569.70;;;3.91;61.13
77323;BME280;66384;51.052;9.850;2023-04-07T01:59:18;98564.38;;;3.91;61.16
77323;BME280;66384;51.052;9.850;2023-04-07T02:01:48;98563.35;;;3.90;61.46
77323;BME280;66384;51.052;9.850;2023-04-07T02:04:24;98561.45;;;3.90;60.91
77323;BME280;66384;51.052;9.850;2023-04-07T02:06:58;98556.77;;;3.92;61.26
77323;BME280;66384;51.052;9.850;2023-04-07T02:09:31;98556.34;;;3.93;61.08
77323;BME280;66384;51.052;9.850;2023-04-07T02:12:03;98553.51;;;3.94;61.31
77323;BME280;66384;51.052;9.850;2023-04-07T02:14:36;98552.77;;;3.96;61.23
77323;BME280;66384;51.052;9.850;2023-04-07T02:17:06;98549.23;;;3.97;61.43
77323;BME280;66384;51.052;9.850;2023-04-07T02:19:36;98550.61;;;3.97;61.36
77323;BME280;66384;51.052;9.850;2023-04-07T02:22:06;98551.98;;;3.94;61.14
77323;BME280;66384;51.052;9.850;2023-04-07T02:24:36;98550.70;;;3.93;61.32
77323;BME280;66384;51.052;9.850;2023-04-07T02:27:05;98547.10;;;3.92;61.08
77323;BME280;66384;51.052;9.850;2023-04-07T02:29:34;98544.71;;;3.92;61.25
77323;BME280;66384;51.052;9.850;2023-04-07T02:32:04;98548.32;;;3.93;61.45
77323;BME280;66384;51.052;9.850;2023-04-07T02:34:33;98545.09;;;3.93;61.30
77323;BME280;66384;51.052;9.850;2023-04-07T02:37:02;98543.86;;;3.92;61.26
77323;BME280;66384;51.052;9.850;2023-04-07T02:39:32;98548.54;;;3.94;61.22
77323;BME280;66384;51.052;9.850;2023-04-07T02:42:01;98548.20;;;3.94;61.50
77323;BME280;66384;51.052;9.850;2023-04-07T02:44:30;98544.98;;;3.94;61.79
77323;BME280;66384;51.052;9.850;2023-04-07T02:46:59;98545.52;;;3.94;61.36
77323;BME280;66384;51.052;9.850;2023-04-07T02:49:29;98541.25;;;3.94;61.71
77323;BME280;66384;51.052;9.850;2023-04-07T02:51:58;98542.45;;;3.91;61.47
77323;BME280;66384;51.052;9.850;2023-04-07T02:54:28;98543.81;;;3.91;61.77
77323;BME280;66384;51.052;9.850;2023-04-07T02:56:57;98542.77;;;3.91;61.77
77323;BME280;66384;51.052;9.850;2023-04-07T02:59:26;98542.11;;;3.91;61.81
77323;BME280;66384;51.052;9.850;2023-04-07T03:01:55;98539.45;;;3.92;62.02
77323;BME280;66384;51.052;9.850;2023-04-07T03:04:24;98536.51;;;3.95;61.68
77323;BME280;66384;51.052;9.850;2023-04-07T03:06:54;98536.13;;;3.97;61.77
77323;BME280;66384;51.052;9.850;2023-04-07T03:09:24;98532.02;;;4.00;61.93
77323;BME280;66384;51.052;9.850;2023-04-07T03:11:53;98533.70;;;4.03;61.98
77323;BME280;66384;51.052;9.850;2023-04-07T03:14:23;98530.39;;;4.05;62.09
77323;BME280;66384;51.052;9.850;2023-04-07T03:16:52;98531.86;;;4.08;61.87
77323;BME280;66384;51.052;9.850;2023-04-07T03:19:21;98533.95;;;4.08;61.96
77323;BME280;66384;51.052;9.850;2023-04-07T03:21:50;98535.48;;;4.08;62.12
77323;BME280;66384;51.052;9.850;2023-04-07T03:24:20;98532.02;;;4.07;62.34
77323;BME280;66384;51.052;9.850;2023-04-07T03:26:49;98530.91;;;4.02;62.16
77323;BME280;66384;51.052;9.850;2023-04-07T03:29:19;98527.63;;;3.97;62.43
77323;BME280;66384;51.052;9.850;2023-04-07T03:31:48;98527.69;;;3.92;62.56
77323;BME280;66384;51.052;9.850;2023-04-07T03:34:17;98526.58;;;3.83;62.42
77323;BME280;66384;51.052;9.850;2023-04-07T03:36:47;98520.65;;;3.80;62.63
77323;BME280;66384;51.052;9.850;2023-04-07T03:39:16;98519.92;;;3.79;62.80
77323;BME280;66384;51.052;9.850;2023-04-07T03:41:45;98519.94;;;3.79;62.86
77323;BME280;66384;51.052;9.850;2023-04-07T03:44:15;98519.87;;;3.81;63.02
77323;BME280;66384;51.052;9.850;2023-04-07T03:46:47;98522.23;;;3.84;63.00
77323;BME280;66384;51.052;9.850;2023-04-07T03:49:17;98518.48;;;3.88;62.83
77323;BME280;66384;51.052;9.850;2023-04-07T03:51:46;98519.87;;;3.92;63.16
77323;BME280;66384;51.052;9.850;2023-04-07T03:54:16;98519.09;;;3.93;63.24
77323;BME280;66384;51.052;9.850;2023-04-07T03:56:45;98520.54;;;3.95;62.97
77323;BME280;66384;51.052;9.850;2023-04-07T03:59:14;98517.52;;;3.96;63.15
77323;BME280;66384;51.052;9.850;2023-04-07T04:01:44;98518.97;;;3.98;62.90
77323;BME280;66384;51.052;9.850;2023-04-07T04:04:13;98519.60;;;4.00;62.96
77323;BME280;66384;51.052;9.850;2023-04-07T04:06:42;98519.20;;;4.02;63.03
77323;BME280;66384;51.052;9.850;2023-04-07T04:09:11;98517.86;;;4.02;62.98
77323;BME280;66384;51.052;9.850;2023-04-07T04:11:41;98519.96;;;4.04;62.75
77323;BME280;66384;51.052;9.850;2023-04-07T04:14:10;98516.14;;;4.06;62.74
77323;BME280;66384;51.052;9.850;2023-04-07T04:16:39;98516.68;;;4.06;62.79
77323;BME280;66384;51.052;9.850;2023-04-07T04:19:09;98516.45;;;4.08;62.78
77323;BME280;66384;51.052;9.850;2023-04-07T04:21:38;98517.27;;;4.08;62.83
77323;BME280;66384;51.052;9.850;2023-04-07T04:24:07;98520.73;;;4.09;62.95
77323;BME280;66384;51.052;9.850;2023-04-07T04:26:37;98517.91;;;4.11;63.21
77323;BME280;66384;51.052;9.850;2023-04-07T04:29:06;98520.89;;;4.13;63.41
77323;BME280;66384;51.052;9.850;2023-04-07T04:31:35;98522.12;;;4.14;63.21
77323;BME280;66384;51.052;9.850;2023-04-07T04:34:04;98521.44;;;4.14;63.20
77323;BME280;66384;51.052;9.850;2023-04-07T04:36:34;98522.95;;;4.09;63.32
77323;BME280;66384;51.052;9.850;2023-04-07T04:39:03;98517.71;;;4.06;63.39
77323;BME280;66384;51.052;9.850;2023-04-07T04:41:33;98521.79;;;4.07;63.50
77323;BME280;66384;51.052;9.850;2023-04-07T04:44:02;98524.58;;;4.08;63.26
77323;BME280;66384;51.052;9.850;2023-04-07T04:46:31;98525.03;;;4.10;63.41
77323;BME280;66384;51.052;9.850;2023-04-07T04:49:01;98529.20;;;4.12;63.46
77323;BME280;66384;51.052;9.850;2023-04-07T04:51:30;98528.55;;;4.13;63.70
77323;BME280;66384;51.052;9.850;2023-04-07T04:53:59;98532.52;;;4.14;63.70
77323;BME280;66384;51.052;9.850;2023-04-07T04:56:30;98533.13;;;4.16;63.57
77323;BME280;66384;51.052;9.850;2023-04-07T04:59:00;98529.95;;;4.17;63.47
77323;BME280;66384;51.052;9.850;2023-04-07T05:01:29;98530.20;;;4.19;63.64
77323;BME280;66384;51.052;9.850;2023-04-07T05:03:58;98533.52;;;4.20;63.43
77323;BME280;66384;51.052;9.850;2023-04-07T05:06:27;98536.29;;;4.21;63.34
77323;BME280;66384;51.052;9.850;2023-04-07T05:08:57;98534.45;;;4.22;63.43
77323;BME280;66384;51.052;9.850;2023-04-07T05:11:26;98535.20;;;4.23;63.56
77323;BME280;66384;51.052;9.850;2023-04-07T05:13:55;98535.02;;;4.27;63.50
77323;BME280;66384;51.052;9.850;2023-04-07T05:16:25;98529.17;;;4.29;63.42
77323;BME280;66384;51.052;9.850;2023-04-07T05:18:54;98528.63;;;4.28;63.51
77323;BME280;66384;51.052;9.850;2023-04-07T05:21:24;98534.70;;;4.31;63.43
77323;BME280;66384;51.052;9.850;2023-04-07T05:23:54;98536.45;;;4.35;63.12
77323;BME280;66384;51.052;9.850;2023-04-07T05:26:23;98537.87;;;4.40;63.21
77323;BME280;66384;51.052;9.850;2023-04-07T05:28:53;98537.06;;;4.44;63.15
77323;BME280;66384;51.052;9.850;2023-04-07T05:31:22;98537.92;;;4.52;63.33
77323;BME280;66384;51.052;9.850;2023-04-07T05:33:51;98538.59;;;4.59;63.31
77323;BME280;66384;51.052;9.850;2023-04-07T05:36:21;98537.85;;;4.65;63.00
77323;BME280;66384;51.052;9.850;2023-04-07T05:38:50;98537.23;;;4.70;63.05
77323;BME280;66384;51.052;9.850;2023-04-07T05:41:19;98538.56;;;4.76;62.99
77323;BME280;66384;51.052;9.850;2023-04-07T05:43:48;98535.30;;;4.83;62.79
77323;BME280;66384;51.052;9.850;2023-04-07T05:46:18;98538.23;;;4.92;62.65
77323;BME280;66384;51.052;9.850;2023-04-07T05:48:47;98535.14;;;4.98;62.17
77323;BME280;66384;51.052;9.850;2023-04-07T05:51:16;98537.70;;;5.07;62.13
77323;BME280;66384;51.052;9.850;2023-04-07T05:53:45;98539.62;;;5.15;61.90
77323;BME280;66384;51.052;9.850;2023-04-07T05:56:15;98534.84;;;5.22;61.69
77323;BME280;66384;51.052;9.850;2023-04-07T05:58:44;98536.66;;;5.33;61.69
77323;BME280;66384;51.052;9.850;2023-04-07T06:01:13;98534.02;;;5.42;61.27
77323;BME280;66384;51.052;9.850;2023-04-07T06:03:42;98532.17;;;5.51;60.66
77323;BME280;66384;51.052;9.850;2023-04-07T06:06:12;98537.07;;;5.62;59.98
77323;BME280;66384;51.052;9.850;2023-04-07T06:08:41;98538.69;;;5.72;59.66
77323;BME280;66384;51.052;9.850;2023-04-07T06:11:10;98541.58;;;5.83;59.46
77323;BME280;66384;51.052;9.850;2023-04-07T06:13:39;98542.85;;;5.93;59.20
77323;BME280;66384;51.052;9.850;2023-04-07T06:16:09;98543.83;;;6.04;58.91
77323;BME280;66384;51.052;9.850;2023-04-07T06:18:39;98542.85;;;6.13;59.02
77323;BME280;66384;51.052;9.850;2023-04-07T06:21:09;98542.00;;;6.22;59.13
77323;BME280;66384;51.052;9.850;2023-04-07T06:23:38;98539.55;;;6.33;58.90
77323;BME280;66384;51.052;9.850;2023-04-07T06:26:10;98537.98;;;6.45;58.86
77323;BME280;66384;51.052;9.850;2023-04-07T06:28:40;98536.77;;;6.57;58.41
77323;BME280;66384;51.052;9.850;2023-04-07T06:31:09;98538.25;;;6.69;58.41
77323;BME280;66384;51.052;9.850;2023-04-07T06:33:39;98537.00;;;6.81;58.48
77323;BME280;66384;51.052;9.850;2023-04-07T06:36:09;98540.02;;;6.93;58.50
77323;BME280;66384;51.052;9.850;2023-04-07T06:38:38;98538.90;;;7.04;58.20
77323;BME280;66384;51.052;9.850;2023-04-07T06:41:08;98532.27;;;7.15;58.34
77323;BME280;66384;51.052;9.850;2023-04-07T06:43:45;98534.21;;;7.25;58.27
77323;BME280;66384;51.052;9.850;2023-04-07T06:46:14;98539.55;;;7.36;58.39
77323;BME280;66384;51.052;9.850;2023-04-07T06:48:43;98543.36;;;7.47;58.13
77323;BME280;66384;51.052;9.850;2023-04-07T06:51:13;98543.63;;;7.54;58.06
77323;BME280;66384;51.052;9.850;2023-04-07T06:53:43;98549.45;;;7.64;57.91
77323;BME280;66384;51.052;9.850;2023-04-07T06:56:14;98548.40;;;7.73;57.79
77323;BME280;66384;51.052;9.850;2023-04-07T06:58:43;98548.41;;;7.83;57.40
77323;BME280;66384;51.052;9.850;2023-04-07T07:01:12;98553.74;;;7.94;57.44
77323;BME280;66384;51.052;9.850;2023-04-07T07:03:42;98552.90;;;8.05;57.28
77323;BME280;66384;51.052;9.850;2023-04-07T07:06:11;98550.34;;;8.14;56.98
77323;BME280;66384;51.052;9.850;2023-04-07T07:08:40;98550.08;;;8.27;56.83
77323;BME280;66384;51.052;9.850;2023-04-07T07:11:10;98552.55;;;8.40;56.82
77323;BME280;66384;51.052;9.850;2023-04-07T07:13:39;98550.70;;;8.51;56.78
77323;BME280;66384;51.052;9.850;2023-04-07T07:16:08;98547.30;;;8.63;56.65
77323;BME280;66384;51.052;9.850;2023-04-07T07:18:39;98549.35;;;8.74;56.35
77323;BME280;66384;51.052;9.850;2023-04-07T07:21:08;98554.02;;;8.81;56.25
77323;BME280;66384;51.052;9.850;2023-04-07T07:23:37;98554.19;;;8.86;56.19
77323;BME280;66384;51.052;9.850;2023-04-07T07:26:07;98557.11;;;8.87;55.58
77323;BME280;66384;51.052;9.850;2023-04-07T07:28:36;98554.60;;;8.88;55.71
77323;BME280;66384;51.052;9.850;2023-04-07T07:31:10;98555.45;;;8.94;55.69
77323;BME280;66384;51.052;9.850;2023-04-07T07:33:42;98557.61;;;9.03;55.70
77323;BME280;66384;51.052;9.850;2023-04-07T07:36:13;98562.60;;;9.09;55.52
77323;BME280;66384;51.052;9.850;2023-04-07T07:38:42;98565.73;;;9.16;55.40
77323;BME280;66384;51.052;9.850;2023-04-07T07:41:11;98562.50;;;9.23;55.18
77323;BME280;66384;51.052;9.850;2023-04-07T07:43:41;98559.40;;;9.29;54.64
77323;BME280;66384;51.052;9.850;2023-04-07T07:46:10;98563.08;;;9.31;54.93
77323;BME280;66384;51.052;9.850;2023-04-07T07:48:40;98572.09;;;9.34;54.74
77323;BME280;66384;51.052;9.850;2023-04-07T07:51:09;98565.54;;;9.33;54.31
77323;BME280;66384;51.052;9.850;2023-04-07T07:53:38;98569.39;;;9.30;54.52
77323;BME280;66384;51.052;9.850;2023-04-07T07:56:07;98570.30;;;9.32;54.56
77323;BME280;66384;51.052;9.850;2023-04-07T07:58:37;98570.02;;;9.34;54.51
77323;BME280;66384;51.052;9.850;2023-04-07T08:01:06;98566.88;;;9.38;54.42
77323;BME280;66384;51.052;9.850;2023-04-07T08:03:35;98572.64;;;9.41;54.38
77323;BME280;66384;51.052;9.850;2023-04-07T08:06:05;98576.48;;;9.43;54.41
77323;BME280;66384;51.052;9.850;2023-04-07T08:08:36;98571.02;;;9.44;54.36
77323;BME280;66384;51.052;9.850;2023-04-07T08:11:05;98574.31;;;9.46;54.37
77323;BME280;66384;51.052;9.850;2023-04-07T08:13:34;98578.02;;;9.49;54.43
77323;BME280;66384;51.052;9.850;2023-04-07T08:16:04;98575.19;;;9.52;54.12
77323;BME280;66384;51.052;9.850;2023-04-07T08:18:34;98578.70;;;9.55;53.57
77323;BME280;66384;51.052;9.850;2023-04-07T08:21:06;98576.22;;;9.59;53.76
77323;BME280;66384;51.052;9.850;2023-04-07T08:23:35;98576.50;;;9.63;53.71
77323;BME280;66384;51.052;9.850;2023-04-07T08:26:04;98580.20;;;9.66;53.66
77323;BME280;66384;51.052;9.850;2023-04-07T08:28:34;98586.17;;;9.70;53.57
77323;BME280;66384;51.052;9.850;2023-04-07T08:31:03;98587.11;;;9.74;53.72
77323;BME280;66384;51.052;9.850;2023-04-07T08:33:32;98586.30;;;9.76;53.22
77323;BME280;66384;51.052;9.850;2023-04-07T08:36:01;98585.86;;;9.78;53.30
77323;BME280;66384;51.052;9.850;2023-04-07T08:38:31;98587.23;;;9.84;53.23
77323;BME280;66384;51.052;9.850;2023-04-07T08:41:03;98589.05;;;9.88;53.37
77323;BME280;66384;51.052;9.850;2023-04-07T08:43:35;98588.24;;;9.96;53.18
77323;BME280;66384;51.052;9.850;2023-04-07T08:46:08;98595.24;;;10.01;52.98
77323;BME280;66384;51.052;9.850;2023-04-07T08:48:38;98589.33;;;10.05;52.90
77323;BME280;66384;51.052;9.850;2023-04-07T08:51:12;98589.56;;;10.08;52.55
77323;BME280;66384;51.052;9.850;2023-04-07T08:53:46;98590.38;;;10.12;52.74
77323;BME280;66384;51.052;9.850;2023-04-07T08:56:18;98590.52;;;10.18;52.42
77323;BME280;66384;51.052;9.850;2023-04-07T08:58:48;98588.48;;;10.18;52.20
77323;BME280;66384;51.052;9.850;2023-04-07T09:01:18;98589.73;;;10.20;51.91
77323;BME280;66384;51.052;9.850;2023-04-07T09:03:48;98593.00;;;10.20;51.74
77323;BME280;66384;51.052;9.850;2023-04-07T09:06:18;98596.73;;;10.19;51.43
77323;BME280;66384;51.052;9.850;2023-04-07T09:08:47;98594.26;;;10.16;51.49
77323;BME280;66384;51.052;9.850;2023-04-07T09:11:16;98596.18;;;10.17;51.88
77323;BME280;66384;51.052;9.850;2023-04-07T09:13:46;98603.09;;;10.18;51.77
77323;BME280;66384;51.052;9.850;2023-04-07T09:16:15;98598.65;;;10.20;51.28
77323;BME280;66384;51.052;9.850;2023-04-07T09:18:45;98599.19;;;10.27;51.64
77323;BME280;66384;51.052;9.850;2023-04-07T09:21:14;98598.86;;;10.33;51.66
77323;BME280;66384;51.052;9.850;2023-04-07T09:23:43;98602.95;;;10.38;51.23
77323;BME280;66384;51.052;9.850;2023-04-07T09:26:25;98605.75;;;10.40;50.88
77323;BME280;66384;51.052;9.850;2023-04-07T09:28:56;98604.52;;;10.46;51.01
77323;BME280;66384;51.052;9.850;2023-04-07T09:31:44;98601.07;;;10.53;50.79
77323;BME280;66384;51.052;9.850;2023-04-07T09:34:25;98599.47;;;10.58;50.83
77323;BME280;66384;51.052;9.850;2023-04-07T09:36:55;98593.51;;;10.60;50.57
77323;BME280;66384;51.052;9.850;2023-04-07T09:39:25;98593.52;;;10.61;50.55
77323;BME280;66384;51.052;9.850;2023-04-07T09:41:55;98592.73;;;10.63;50.29
77323;BME280;66384;51.052;9.850;2023-04-07T09:44:25;98596.84;;;10.70;49.85
77323;BME280;66384;51.052;9.850;2023-04-07T09:46:55;98595.45;;;10.76;50.07
77323;BME280;66384;51.052;9.850;2023-04-07T09:49:25;98588.80;;;10.87;49.98
77323;BME280;66384;51.052;9.850;2023-04-07T09:51:56;98588.35;;;10.97;49.68
77323;BME280;66384;51.052;9.850;2023-04-07T09:54:37;98591.87;;;11.01;49.50
77323;BME280;66384;51.052;9.850;2023-04-07T09:57:07;98592.22;;;11.01;48.90
77323;BME280;66384;51.052;9.850;2023-04-07T09:59:38;98591.52;;;11.07;48.86
77323;BME280;66384;51.052;9.850;2023-04-07T10:02:09;98589.48;;;11.17;49.01
77323;BME280;66384;51.052;9.850;2023-04-07T10:04:39;98589.61;;;11.30;48.39
77323;BME280;66384;51.052;9.850;2023-04-07T10:07:09;98585.63;;;11.37;47.82
77323;BME280;66384;51.052;9.850;2023-04-07T10:09:38;98583.39;;;11.46;48.01
77323;BME280;66384;51.052;9.850;2023-04-07T10:12:08;98587.14;;;11.52;47.89
77323;BME280;66384;51.052;9.850;2023-04-07T10:14:37;98581.90;;;11.57;47.50
77323;BME280;66384;51.052;9.850;2023-04-07T10:17:07;98585.21;;;11.68;47.66
77323;BME280;66384;51.052;9.850;2023-04-07T10:19:37;98582.66;;;11.78;47.77
77323;BME280;66384;51.052;9.850;2023-04-07T10:22:07;98578.98;;;11.91;47.68
77323;BME280;66384;51.052;9.850;2023-04-07T10:24:52;98580.84;;;11.98;46.61
77323;BME280;66384;51.052;9.850;2023-04-07T10:27:26;98581.50;;;12.06;46.81
77323;BME280;66384;51.052;9.850;2023-04-07T10:29:58;98577.45;;;12.11;46.34
77323;BME280;66384;51.052;9.850;2023-04-07T10:32:26;98582.73;;;12.17;46.33
77323;BME280;66384;51.052;9.850;2023-04-07T10:35:00;98581.73;;;12.28;46.34
77323;BME280;66384;51.052;9.850;2023-04-07T10:37:30;98578.83;;;12.40;45.90
77323;BME280;66384;51.052;9.850;2023-04-07T10:40:28;98580.67;;;12.47;45.52
77323;BME280;66384;51.052;9.850;2023-04-07T10:42:58;98578.64;;;12.50;45.25
77323;BME280;66384;51.052;9.850;2023-04-07T10:45:54;98583.81;;;12.49;45.07
77323;BME280;66384;51.052;9.850;2023-04-07T10:48:26;98586.05;;;12.49;44.54
77323;BME280;66384;51.052;9.850;2023-04-07T10:51:14;98580.66;;;12.46;43.85
77323;BME280;66384;51.052;9.850;2023-04-07T10:57:12;98580.66;;;12.36;43.58
77323;BME280;66384;51.052;9.850;2023-04-07T11:00:16;98580.76;;;12.32;43.60
77323;BME280;66384;51.052;9.850;2023-04-07T11:02:45;98581.65;;;12.34;43.46
77323;BME280;66384;51.052;9.850;2023-04-07T11:05:22;98579.52;;;12.40;43.70
77323;BME280;66384;51.052;9.850;2023-04-07T11:07:53;98579.86;;;12.50;43.35
77323;BME280;66384;51.052;9.850;2023-04-07T11:10:29;98578.64;;;12.60;42.86
77323;BME280;66384;51.052;9.850;2023-04-07T11:13:06;98576.83;;;12.65;42.75
77323;BME280;66384;51.052;9.850;2023-04-07T11:15:36;98573.30;;;12.71;42.51
77323;BME280;66384;51.052;9.850;2023-04-07T11:18:17;98574.85;;;12.82;42.42
77323;BME280;66384;51.052;9.850;2023-04-07T11:20:52;98569.35;;;12.96;42.31
77323;BME280;66384;51.052;9.850;2023-04-07T11:23:23;98561.98;;;13.11;42.11
77323;BME280;66384;51.052;9.850;2023-04-07T11:25:58;98559.27;;;13.26;42.27
77323;BME280;66384;51.052;9.850;2023-04-07T11:28:28;98561.68;;;13.38;42.45
77323;BME280;66384;51.052;9.850;2023-04-07T11:30:58;98566.49;;;13.51;42.75
77323;BME280;66384;51.052;9.850;2023-04-07T11:33:29;98570.38;;;13.58;42.17
77323;BME280;66384;51.052;9.850;2023-04-07T11:36:05;98575.25;;;13.60;41.76
77323;BME280;66384;51.052;9.850;2023-04-07T11:38:37;98574.88;;;13.58;41.66
77323;BME280;66384;51.052;9.850;2023-04-07T11:41:12;98576.05;;;13.54;41.63
77323;BME280;66384;51.052;9.850;2023-04-07T11:43:42;98576.34;;;13.51;41.77
77323;BME280;66384;51.052;9.850;2023-04-07T11:46:14;98574.23;;;13.48;41.80
77323;BME280;66384;51.052;9.850;2023-04-07T11:48:46;98578.38;;;13.47;41.76
77323;BME280;66384;51.052;9.850;2023-04-07T11:51:21;98579.70;;;13.42;41.68
77323;BME280;66384;51.052;9.850;2023-04-07T11:53:56;98574.11;;;13.38;41.42
77323;BME280;66384;51.052;9.850;2023-04-07T11:56:25;98576.44;;;13.31;41.39
77323;BME280;66384;51.052;9.850;2023-04-07T11:58:56;98580.16;;;13.27;41.53
77323;BME280;66384;51.052;9.850;2023-04-07T12:01:39;98579.23;;;13.22;41.35
77323;BME280;66384;51.052;9.850;2023-04-07T12:04:12;98577.95;;;13.16;41.42
77323;BME280;66384;51.052;9.850;2023-04-07T12:06:43;98581.52;;;13.13;41.56
77323;BME280;66384;51.052;9.850;2023-04-07T12:09:28;98579.02;;;13.08;41.74
77323;BME280;66384;51.052;9.850;2023-04-07T12:11:59;98577.04;;;13.02;41.75
77323;BME280;66384;51.052;9.850;2023-04-07T12:14:29;98578.56;;;13.00;41.71
77323;BME280;66384;51.052;9.850;2023-04-07T12:16:58;98577.83;;;12.97;41.56
77323;BME280;66384;51.052;9.850;2023-04-07T12:19:31;98578.17;;;12.97;41.76
77323;BME280;66384;51.052;9.850;2023-04-07T12:22:02;98580.26;;;12.98;41.52
77323;BME280;66384;51.052;9.850;2023-04-07T12:24:31;98579.95;;;13.00;41.46
77323;BME280;66384;51.052;9.850;2023-04-07T12:27:00;98577.72;;;13.01;41.34
77323;BME280;66384;51.052;9.850;2023-04-07T12:29:30;98577.89;;;13.02;41.07
77323;BME280;66384;51.052;9.850;2023-04-07T12:32:00;98577.06;;;13.04;41.39
77323;BME280;66384;51.052;9.850;2023-04-07T12:34:29;98576.73;;;13.05;41.25
77323;BME280;66384;51.052;9.850;2023-04-07T12:36:59;98576.08;;;13.07;41.34
77323;BME280;66384;51.052;9.850;2023-04-07T12:39:28;98580.25;;;13.09;41.24
77323;BME280;66384;51.052;9.850;2023-04-07T12:41:58;98575.89;;;13.05;40.80
77323;BME280;66384;51.052;9.850;2023-04-07T12:44:27;98573.79;;;13.04;41.08
77323;BME280;66384;51.052;9.850;2023-04-07T12:46:57;98576.93;;;13.07;41.01
77323;BME280;66384;51.052;9.850;2023-04-07T12:49:26;98575.41;;;13.09;40.62
77323;BME280;66384;51.052;9.850;2023-04-07T12:51:55;98575.48;;;13.13;40.44
77323;BME280;66384;51.052;9.850;2023-04-07T12:54:25;98577.08;;;13.17;40.24
77323;BME280;66384;51.052;9.850;2023-04-07T12:56:55;98574.54;;;13.21;40.11
77323;BME280;66384;51.052;9.850;2023-04-07T12:59:25;98575.61;;;13.23;39.87
77323;BME280;66384;51.052;9.850;2023-04-07T13:01:55;98578.40;;;13.25;39.86
77323;BME280;66384;51.052;9.850;2023-04-07T13:04:24;98579.65;;;13.27;39.52
77323;BME280;66384;51.052;9.850;2023-04-07T13:06:57;98578.60;;;13.25;39.20
77323;BME280;66384;51.052;9.850;2023-04-07T13:09:26;98575.98;;;13.25;39.46
77323;BME280;66384;51.052;9.850;2023-04-07T13:11:55;98576.55;;;13.27;39.19
77323;BME280;66384;51.052;9.850;2023-04-07T13:14:25;98581.39;;;13.27;39.37
77323;BME280;66384;51.052;9.850;2023-04-07T13:16:54;98578.94;;;13.25;39.22
77323;BME280;66384;51.052;9.850;2023-04-07T13:19:24;98580.59;;;13.20;39.66
77323;BME280;66384;51.052;9.850;2023-04-07T13:21:53;98584.20;;;13.19;39.42
77323;BME280;66384;51.052;9.850;2023-04-07T13:24:22;98582.61;;;13.17;39.59
77323;BME280;66384;51.052;9.850;2023-04-07T13:26:52;98577.60;;;13.18;39.56
77323;BME280;66384;51.052;9.850;2023-04-07T13:29:21;98574.53;;;13.19;39.50
77323;BME280;66384;51.052;9.850;2023-04-07T13:31:50;98577.83;;;13.22;39.40